sensor_id;sensor_type;location;lat;lon;timestamp;temperature;humidity
40622;DHT22;26324;52.040;11.528;2022-12-16T00:00:31;-3268.40;83.10
40622;DHT22;26324;52.040;11.528;2022-12-16T00:02:58;-3268.40;82.80
40622;DHT22;26324;52.040;11.528;2022-12-16T00:05:25;-3268.40;83.00
40622;DHT22;26324;52.040;11.528;2022-12-16T00:07:50;-3268.50;82.60
40622;DHT22;26324;52.040;11.528;2022-12-16T00:10:16;-3268.40;82.10
40622;DHT22;26324;52.040;11.528;2022-12-16T00:12:41;-3268.40;81.90
40622;DHT22;26324;52.040;11.528;2022-12-16T00:15:07;-3268.20;81.80
40622;DHT22;26324;52.040;11.528;2022-12-16T00:17:33;-3268.10;82.30
40622;DHT22;26324;52.040;11.528;2022-12-16T00:19:58;-3268.00;82.40
40622;DHT22;26324;52.040;11.528;2022-12-16T00:22:24;-3268.10;82.50
40622;DHT22;26324;52.040;11.528;2022-12-16T00:24:49;-3268.10;82.60
40622;DHT22;26324;52.040;11.528;2022-12-16T00:27:15;-3268.10;82.80
40622;DHT22;26324;52.040;11.528;2022-12-16T00:29:40;-3268.20;82.50
40622;DHT22;26324;52.040;11.528;2022-12-16T00:32:06;-3268.20;82.40
40622;DHT22;26324;52.040;11.528;2022-12-16T00:34:32;-3268.40;82.00
40622;DHT22;26324;52.040;11.528;2022-12-16T00:36:58;-3268.20;81.40
40622;DHT22;26324;52.040;11.528;2022-12-16T00:39:24;-3268.10;81.60
40622;DHT22;26324;52.040;11.528;2022-12-16T00:41:50;-3268.10;81.80
40622;DHT22;26324;52.040;11.528;2022-12-16T00:44:15;-3268.20;81.40
40622;DHT22;26324;52.040;11.528;2022-12-16T00:46:41;-3268.20;81.10
40622;DHT22;26324;52.040;11.528;2022-12-16T00:49:06;-3268.00;81.10
40622;DHT22;26324;52.040;11.528;2022-12-16T00:51:32;-3268.00;81.50
40622;DHT22;26324;52.040;11.528;2022-12-16T00:53:57;-3268.00;81.50
40622;DHT22;26324;52.040;11.528;2022-12-16T00:56:23;-3268.00;81.70
40622;DHT22;26324;52.040;11.528;2022-12-16T00:58:49;-3268.00;81.40
40622;DHT22;26324;52.040;11.528;2022-12-16T01:01:15;-3268.00;81.00
40622;DHT22;26324;52.040;11.528;2022-12-16T01:03:40;-3267.90;81.30
40622;DHT22;26324;52.040;11.528;2022-12-16T01:06:11;-3267.90;81.70
40622;DHT22;26324;52.040;11.528;2022-12-16T01:08:37;-3268.00;81.60
40622;DHT22;26324;52.040;11.528;2022-12-16T01:11:03;-3268.00;81.40
40622;DHT22;26324;52.040;11.528;2022-12-16T01:13:28;-3268.00;81.40
40622;DHT22;26324;52.040;11.528;2022-12-16T01:15:54;-3268.00;81.50
40622;DHT22;26324;52.040;11.528;2022-12-16T01:18:23;-3268.00;81.50
40622;DHT22;26324;52.040;11.528;2022-12-16T01:20:48;-3267.80;81.70
40622;DHT22;26324;52.040;11.528;2022-12-16T01:23:14;-3267.80;82.10
40622;DHT22;26324;52.040;11.528;2022-12-16T01:25:39;-3267.80;82.10
40622;DHT22;26324;52.040;11.528;2022-12-16T01:28:05;-3267.70;82.40
40622;DHT22;26324;52.040;11.528;2022-12-16T01:30:30;-3267.70;82.50
40622;DHT22;26324;52.040;11.528;2022-12-16T01:32:56;-3267.80;82.60
40622;DHT22;26324;52.040;11.528;2022-12-16T01:35:21;-3267.90;82.40
40622;DHT22;26324;52.040;11.528;2022-12-16T01:37:47;-3267.80;82.40
40622;DHT22;26324;52.040;11.528;2022-12-16T01:40:18;-3267.80;82.80
40622;DHT22;26324;52.040;11.528;2022-12-16T01:42:44;-3268.00;82.30
40622;DHT22;26324;52.040;11.528;2022-12-16T01:45:28;-3268.00;81.80
40622;DHT22;26324;52.040;11.528;2022-12-16T01:47:58;-3267.90;81.80
40622;DHT22;26324;52.040;11.528;2022-12-16T01:50:25;-3267.70;82.00
40622;DHT22;26324;52.040;11.528;2022-12-16T01:52:54;-3267.80;82.10
40622;DHT22;26324;52.040;11.528;2022-12-16T01:55:25;-3267.70;81.90
40622;DHT22;26324;52.040;11.528;2022-12-16T01:58:08;-3267.80;82.00
40622;DHT22;26324;52.040;11.528;2022-12-16T02:00:36;-3267.80;82.10
40622;DHT22;26324;52.040;11.528;2022-12-16T02:03:03;-3267.90;82.00
40622;DHT22;26324;52.040;11.528;2022-12-16T02:05:29;-3267.70;82.10
40622;DHT22;26324;52.040;11.528;2022-12-16T02:07:55;-3267.70;82.20
40622;DHT22;26324;52.040;11.528;2022-12-16T02:10:30;-3267.70;82.60
40622;DHT22;26324;52.040;11.528;2022-12-16T02:13:08;-3267.70;82.40
40622;DHT22;26324;52.040;11.528;2022-12-16T02:15:43;-3267.60;82.70
40622;DHT22;26324;52.040;11.528;2022-12-16T02:18:28;-3267.50;82.80
40622;DHT22;26324;52.040;11.528;2022-12-16T02:31:58;-3267.80;83.00
40622;DHT22;26324;52.040;11.528;2022-12-16T02:34:54;-3267.70;83.00
40622;DHT22;26324;52.040;11.528;2022-12-16T02:37:35;-3267.60;83.30
40622;DHT22;26324;52.040;11.528;2022-12-16T02:40:10;-3267.60;83.40
40622;DHT22;26324;52.040;11.528;2022-12-16T02:42:49;-3267.70;83.40
40622;DHT22;26324;52.040;11.528;2022-12-16T02:45:27;-3267.70;83.40
40622;DHT22;26324;52.040;11.528;2022-12-16T02:47:52;-3267.70;83.30
40622;DHT22;26324;52.040;11.528;2022-12-16T02:50:47;-3267.80;83.30
40622;DHT22;26324;52.040;11.528;2022-12-16T02:53:14;-3267.80;82.50
40622;DHT22;26324;52.040;11.528;2022-12-16T02:56:03;-3267.70;81.80
40622;DHT22;26324;52.040;11.528;2022-12-16T02:58:35;-3267.50;81.50
40622;DHT22;26324;52.040;11.528;2022-12-16T03:01:26;-3267.40;81.90
40622;DHT22;26324;52.040;11.528;2022-12-16T03:04:19;-3267.40;82.10
40622;DHT22;26324;52.040;11.528;2022-12-16T03:06:48;-3267.30;81.90
40622;DHT22;26324;52.040;11.528;2022-12-16T03:09:18;-3267.20;82.30
40622;DHT22;26324;52.040;11.528;2022-12-16T03:11:45;-3267.30;82.50
40622;DHT22;26324;52.040;11.528;2022-12-16T03:14:14;-3267.20;82.50
40622;DHT22;26324;52.040;11.528;2022-12-16T03:16:41;-3267.30;82.70
40622;DHT22;26324;52.040;11.528;2022-12-16T03:19:09;-3267.20;82.60
40622;DHT22;26324;52.040;11.528;2022-12-16T03:21:54;-3267.30;82.80
40622;DHT22;26324;52.040;11.528;2022-12-16T03:24:21;-3267.40;82.80
40622;DHT22;26324;52.040;11.528;2022-12-16T03:27:20;-3267.50;82.40
40622;DHT22;26324;52.040;11.528;2022-12-16T03:29:55;-3267.50;82.20
40622;DHT22;26324;52.040;11.528;2022-12-16T03:32:40;-3267.50;82.10
40622;DHT22;26324;52.040;11.528;2022-12-16T03:35:21;-3267.40;82.20
40622;DHT22;26324;52.040;11.528;2022-12-16T03:37:50;-3267.30;82.30
40622;DHT22;26324;52.040;11.528;2022-12-16T03:40:18;-3267.50;82.00
40622;DHT22;26324;52.040;11.528;2022-12-16T03:42:44;-3267.40;81.70
40622;DHT22;26324;52.040;11.528;2022-12-16T03:45:22;-3267.40;81.70
40622;DHT22;26324;52.040;11.528;2022-12-16T03:47:52;-3267.40;81.90
40622;DHT22;26324;52.040;11.528;2022-12-16T03:50:20;-3267.20;82.10
40622;DHT22;26324;52.040;11.528;2022-12-16T03:52:48;-3267.20;82.20
40622;DHT22;26324;52.040;11.528;2022-12-16T03:55:14;-3267.20;82.30
40622;DHT22;26324;52.040;11.528;2022-12-16T03:57:39;-3267.10;82.30
40622;DHT22;26324;52.040;11.528;2022-12-16T04:00:05;-3267.00;82.50
40622;DHT22;26324;52.040;11.528;2022-12-16T04:02:31;-3267.00;82.60
40622;DHT22;26324;52.040;11.528;2022-12-16T04:04:56;-3267.00;82.70
40622;DHT22;26324;52.040;11.528;2022-12-16T04:07:22;-3266.90;82.70
40622;DHT22;26324;52.040;11.528;2022-12-16T04:09:49;-3266.90;83.30
40622;DHT22;26324;52.040;11.528;2022-12-16T04:12:15;-3267.00;83.30
40622;DHT22;26324;52.040;11.528;2022-12-16T04:14:59;-3267.10;83.30
40622;DHT22;26324;52.040;11.528;2022-12-16T04:17:44;-3267.20;83.00
40622;DHT22;26324;52.040;11.528;2022-12-16T04:20:31;-3267.20;82.60
40622;DHT22;26324;52.040;11.528;2022-12-16T04:23:15;-3267.00;82.70
40622;DHT22;26324;52.040;11.528;2022-12-16T04:26:00;-3267.00;82.90
40622;DHT22;26324;52.040;11.528;2022-12-16T04:28:26;-3267.00;82.80
40622;DHT22;26324;52.040;11.528;2022-12-16T04:30:51;-3267.00;82.90
40622;DHT22;26324;52.040;11.528;2022-12-16T04:33:17;-3266.90;82.90
40622;DHT22;26324;52.040;11.528;2022-12-16T04:36:01;-3266.90;82.90
40622;DHT22;26324;52.040;11.528;2022-12-16T04:38:52;-3266.80;83.00
40622;DHT22;26324;52.040;11.528;2022-12-16T04:41:37;-3266.70;83.20
40622;DHT22;26324;52.040;11.528;2022-12-16T04:44:21;-3266.70;83.40
40622;DHT22;26324;52.040;11.528;2022-12-16T04:47:05;-3266.60;83.70
40622;DHT22;26324;52.040;11.528;2022-12-16T04:49:49;-3266.50;83.80
40622;DHT22;26324;52.040;11.528;2022-12-16T04:52:33;-3266.60;83.90
40622;DHT22;26324;52.040;11.528;2022-12-16T04:55:17;-3266.70;84.10
40622;DHT22;26324;52.040;11.528;2022-12-16T04:58:02;-3266.90;83.80
40622;DHT22;26324;52.040;11.528;2022-12-16T05:00:48;-3266.80;84.00
40622;DHT22;26324;52.040;11.528;2022-12-16T05:03:32;-3267.00;83.80
40622;DHT22;26324;52.040;11.528;2022-12-16T05:06:17;-3267.00;83.90
40622;DHT22;26324;52.040;11.528;2022-12-16T05:09:02;-3267.10;83.50
40622;DHT22;26324;52.040;11.528;2022-12-16T05:11:46;-3267.20;82.70
40622;DHT22;26324;52.040;11.528;2022-12-16T05:14:30;-3267.00;82.10
40622;DHT22;26324;52.040;11.528;2022-12-16T05:17:16;-3267.00;81.60
40622;DHT22;26324;52.040;11.528;2022-12-16T05:20:00;-3266.90;81.40
40622;DHT22;26324;52.040;11.528;2022-12-16T05:22:45;-3266.70;81.60
40622;DHT22;26324;52.040;11.528;2022-12-16T05:25:29;-3266.70;81.90
40622;DHT22;26324;52.040;11.528;2022-12-16T05:28:13;-3266.80;82.20
40622;DHT22;26324;52.040;11.528;2022-12-16T05:30:57;-3266.80;82.40
40622;DHT22;26324;52.040;11.528;2022-12-16T05:33:41;-3266.80;83.00
40622;DHT22;26324;52.040;11.528;2022-12-16T05:36:25;-3266.90;83.30
40622;DHT22;26324;52.040;11.528;2022-12-16T05:39:09;-3266.90;83.30
40622;DHT22;26324;52.040;11.528;2022-12-16T05:41:54;-3266.90;83.40
40622;DHT22;26324;52.040;11.528;2022-12-16T05:44:38;-3266.90;83.30
40622;DHT22;26324;52.040;11.528;2022-12-16T05:47:22;-3267.00;83.40
40622;DHT22;26324;52.040;11.528;2022-12-16T05:50:07;-3266.90;83.40
40622;DHT22;26324;52.040;11.528;2022-12-16T05:52:52;-3267.10;83.30
40622;DHT22;26324;52.040;11.528;2022-12-16T05:55:37;-3267.10;83.20
40622;DHT22;26324;52.040;11.528;2022-12-16T05:58:21;-3267.00;83.50
40622;DHT22;26324;52.040;11.528;2022-12-16T06:01:05;-3267.00;83.70
40622;DHT22;26324;52.040;11.528;2022-12-16T06:03:50;-3266.90;83.70
40622;DHT22;26324;52.040;11.528;2022-12-16T06:06:34;-3267.00;83.80
40622;DHT22;26324;52.040;11.528;2022-12-16T06:09:18;-3266.90;83.60
40622;DHT22;26324;52.040;11.528;2022-12-16T06:12:06;-3266.80;83.70
40622;DHT22;26324;52.040;11.528;2022-12-16T06:14:50;-3266.80;83.80
40622;DHT22;26324;52.040;11.528;2022-12-16T06:17:34;-3266.80;83.80
40622;DHT22;26324;52.040;11.528;2022-12-16T06:20:19;-3266.80;83.70
40622;DHT22;26324;52.040;11.528;2022-12-16T06:23:04;-3266.80;83.80
40622;DHT22;26324;52.040;11.528;2022-12-16T06:25:48;-3266.70;83.70
40622;DHT22;26324;52.040;11.528;2022-12-16T06:28:33;-3266.60;83.80
40622;DHT22;26324;52.040;11.528;2022-12-16T06:31:17;-3266.60;84.10
40622;DHT22;26324;52.040;11.528;2022-12-16T06:34:01;-3266.70;84.20
40622;DHT22;26324;52.040;11.528;2022-12-16T06:36:46;-3266.70;84.20
40622;DHT22;26324;52.040;11.528;2022-12-16T06:39:30;-3266.60;84.40
40622;DHT22;26324;52.040;11.528;2022-12-16T06:42:14;-3266.60;84.60
40622;DHT22;26324;52.040;11.528;2022-12-16T06:44:59;-3266.70;84.50
40622;DHT22;26324;52.040;11.528;2022-12-16T06:47:43;-3266.70;84.40
40622;DHT22;26324;52.040;11.528;2022-12-16T06:50:28;-3266.70;84.60
40622;DHT22;26324;52.040;11.528;2022-12-16T06:53:13;-3266.60;84.60
40622;DHT22;26324;52.040;11.528;2022-12-16T06:55:58;-3266.80;84.80
40622;DHT22;26324;52.040;11.528;2022-12-16T06:58:46;-3266.70;84.50
40622;DHT22;26324;52.040;11.528;2022-12-16T07:01:30;-3266.80;84.60
40622;DHT22;26324;52.040;11.528;2022-12-16T07:04:14;-3266.70;84.60
40622;DHT22;26324;52.040;11.528;2022-12-16T07:06:58;-3266.70;84.80
40622;DHT22;26324;52.040;11.528;2022-12-16T07:09:42;-3266.80;85.00
40622;DHT22;26324;52.040;11.528;2022-12-16T07:12:26;-3266.90;85.00
40622;DHT22;26324;52.040;11.528;2022-12-16T07:15:11;-3266.90;85.10
40622;DHT22;26324;52.040;11.528;2022-12-16T07:17:55;-3267.00;85.20
40622;DHT22;26324;52.040;11.528;2022-12-16T07:20:39;-3267.20;85.30
40622;DHT22;26324;52.040;11.528;2022-12-16T07:23:23;-3267.30;85.20
40622;DHT22;26324;52.040;11.528;2022-12-16T07:26:07;-3267.40;85.20
40622;DHT22;26324;52.040;11.528;2022-12-16T07:28:51;-3267.50;85.30
40622;DHT22;26324;52.040;11.528;2022-12-16T07:31:35;-3267.50;85.10
40622;DHT22;26324;52.040;11.528;2022-12-16T07:34:19;-3267.70;85.10
40622;DHT22;26324;52.040;11.528;2022-12-16T07:37:04;-3267.70;85.00
40622;DHT22;26324;52.040;11.528;2022-12-16T07:39:48;-3267.90;84.80
40622;DHT22;26324;52.040;11.528;2022-12-16T07:42:32;-3268.00;84.90
40622;DHT22;26324;52.040;11.528;2022-12-16T07:45:17;-3268.00;85.00
40622;DHT22;26324;52.040;11.528;2022-12-16T07:48:01;-3268.10;85.00
40622;DHT22;26324;52.040;11.528;2022-12-16T07:50:45;-3268.10;85.00
40622;DHT22;26324;52.040;11.528;2022-12-16T07:53:29;-3268.10;85.00
40622;DHT22;26324;52.040;11.528;2022-12-16T07:56:13;-3268.20;85.10
40622;DHT22;26324;52.040;11.528;2022-12-16T07:58:58;-3268.30;85.00
40622;DHT22;26324;52.040;11.528;2022-12-16T08:01:42;-3268.40;85.10
40622;DHT22;26324;52.040;11.528;2022-12-16T08:04:27;-3268.50;85.00
40622;DHT22;26324;52.040;11.528;2022-12-16T08:07:11;-3268.70;85.20
40622;DHT22;26324;52.040;11.528;2022-12-16T08:09:55;-3268.80;85.20
40622;DHT22;26324;52.040;11.528;2022-12-16T08:12:39;-3268.90;85.40
40622;DHT22;26324;52.040;11.528;2022-12-16T08:15:23;-3269.10;85.40
40622;DHT22;26324;52.040;11.528;2022-12-16T08:18:07;-3269.40;85.50
40622;DHT22;26324;52.040;11.528;2022-12-16T08:20:52;-3269.60;85.40
40622;DHT22;26324;52.040;11.528;2022-12-16T08:23:35;-3269.80;85.30
40622;DHT22;26324;52.040;11.528;2022-12-16T08:26:20;-3270.10;85.30
40622;DHT22;26324;52.040;11.528;2022-12-16T08:29:04;-3270.30;84.90
40622;DHT22;26324;52.040;11.528;2022-12-16T08:31:48;-3270.50;84.80
40622;DHT22;26324;52.040;11.528;2022-12-16T08:34:32;-3270.60;84.40
40622;DHT22;26324;52.040;11.528;2022-12-16T08:37:16;-3270.80;84.60
40622;DHT22;26324;52.040;11.528;2022-12-16T08:40:00;-3271.00;85.00
40622;DHT22;26324;52.040;11.528;2022-12-16T08:42:44;-3271.20;84.50
40622;DHT22;26324;52.040;11.528;2022-12-16T08:45:28;-3271.40;84.50
40622;DHT22;26324;52.040;11.528;2022-12-16T08:48:12;-3271.50;84.50
40622;DHT22;26324;52.040;11.528;2022-12-16T08:51:00;-3271.60;84.10
40622;DHT22;26324;52.040;11.528;2022-12-16T08:53:44;-3271.70;84.60
40622;DHT22;26324;52.040;11.528;2022-12-16T08:56:28;-3271.90;84.30
40622;DHT22;26324;52.040;11.528;2022-12-16T08:59:12;-3272.00;84.60
40622;DHT22;26324;52.040;11.528;2022-12-16T09:01:57;-3272.20;85.00
40622;DHT22;26324;52.040;11.528;2022-12-16T09:04:42;-3272.40;84.80
40622;DHT22;26324;52.040;11.528;2022-12-16T09:07:26;-3272.70;84.50
40622;DHT22;26324;52.040;11.528;2022-12-16T09:10:10;-3272.90;83.50
40622;DHT22;26324;52.040;11.528;2022-12-16T09:13:26;-3273.00;83.10
40622;DHT22;26324;52.040;11.528;2022-12-16T09:16:27;-3273.10;83.10
40622;DHT22;26324;52.040;11.528;2022-12-16T09:19:17;-3273.10;83.00
40622;DHT22;26324;52.040;11.528;2022-12-16T09:22:02;-3273.10;83.20
40622;DHT22;26324;52.040;11.528;2022-12-16T09:24:46;-3273.10;83.50
40622;DHT22;26324;52.040;11.528;2022-12-16T09:27:30;-3273.40;84.00
40622;DHT22;26324;52.040;11.528;2022-12-16T09:30:14;-3273.60;83.70
40622;DHT22;26324;52.040;11.528;2022-12-16T09:33:06;-3273.70;83.30
40622;DHT22;26324;52.040;11.528;2022-12-16T09:35:50;-3273.90;82.80
40622;DHT22;26324;52.040;11.528;2022-12-16T09:38:34;-3273.90;82.50
40622;DHT22;26324;52.040;11.528;2022-12-16T09:47:56;-3274.10;82.90
40622;DHT22;26324;52.040;11.528;2022-12-16T09:50:43;-3274.10;82.80
40622;DHT22;26324;52.040;11.528;2022-12-16T09:53:31;-3274.20;83.10
40622;DHT22;26324;52.040;11.528;2022-12-16T09:56:21;-3274.20;83.00
40622;DHT22;26324;52.040;11.528;2022-12-16T09:59:11;-3274.30;83.00
40622;DHT22;26324;52.040;11.528;2022-12-16T10:01:56;-3274.30;83.00
40622;DHT22;26324;52.040;11.528;2022-12-16T10:04:40;-3274.40;83.20
40622;DHT22;26324;52.040;11.528;2022-12-16T10:07:28;-3274.40;82.60
40622;DHT22;26324;52.040;11.528;2022-12-16T10:16:59;-3274.80;82.00
40622;DHT22;26324;52.040;11.528;2022-12-16T10:20:02;-3275.00;81.70
40622;DHT22;26324;52.040;11.528;2022-12-16T10:25:46;-3275.00;81.70
40622;DHT22;26324;52.040;11.528;2022-12-16T10:28:44;-3275.20;81.50
40622;DHT22;26324;52.040;11.528;2022-12-16T10:31:31;-3275.30;81.40
40622;DHT22;26324;52.040;11.528;2022-12-16T10:34:24;-3275.40;81.00
40622;DHT22;26324;52.040;11.528;2022-12-16T10:37:19;-3275.50;80.60
40622;DHT22;26324;52.040;11.528;2022-12-16T10:40:11;-3275.70;80.60
40622;DHT22;26324;52.040;11.528;2022-12-16T10:43:17;-3275.80;80.20
40622;DHT22;26324;52.040;11.528;2022-12-16T10:46:12;-3275.90;80.30
40622;DHT22;26324;52.040;11.528;2022-12-16T10:48:59;-3275.90;80.60
40622;DHT22;26324;52.040;11.528;2022-12-16T10:51:43;-3276.00;80.10
40622;DHT22;26324;52.040;11.528;2022-12-16T10:54:34;-3276.10;79.10
40622;DHT22;26324;52.040;11.528;2022-12-16T11:00:39;-3276.10;79.30
40622;DHT22;26324;52.040;11.528;2022-12-16T11:03:24;-3276.10;79.30
40622;DHT22;26324;52.040;11.528;2022-12-16T11:06:09;-3276.10;79.90
40622;DHT22;26324;52.040;11.528;2022-12-16T11:08:56;-3276.30;79.70
40622;DHT22;26324;52.040;11.528;2022-12-16T11:12:23;-3276.30;79.40
40622;DHT22;26324;52.040;11.528;2022-12-16T11:15:23;-3276.50;79.40
40622;DHT22;26324;52.040;11.528;2022-12-16T11:18:13;-3276.60;78.90
40622;DHT22;26324;52.040;11.528;2022-12-16T11:21:13;-3276.70;78.40
40622;DHT22;26324;52.040;11.528;2022-12-16T11:26:54;-3276.70;78.60
40622;DHT22;26324;52.040;11.528;2022-12-16T11:29:56;0.00;78.20
40622;DHT22;26324;52.040;11.528;2022-12-16T11:32:54;0.00;78.40
40622;DHT22;26324;52.040;11.528;2022-12-16T11:35:41;0.00;77.80
40622;DHT22;26324;52.040;11.528;2022-12-16T11:38:38;0.00;78.00
40622;DHT22;26324;52.040;11.528;2022-12-16T11:41:28;0.10;77.90
40622;DHT22;26324;52.040;11.528;2022-12-16T11:44:20;0.10;78.00
40622;DHT22;26324;52.040;11.528;2022-12-16T11:47:21;0.20;77.80
40622;DHT22;26324;52.040;11.528;2022-12-16T11:50:14;0.10;78.30
40622;DHT22;26324;52.040;11.528;2022-12-16T11:53:01;0.10;78.30
40622;DHT22;26324;52.040;11.528;2022-12-16T11:55:49;0.20;78.30
40622;DHT22;26324;52.040;11.528;2022-12-16T11:58:41;0.20;78.30
40622;DHT22;26324;52.040;11.528;2022-12-16T12:04:14;0.20;78.70
40622;DHT22;26324;52.040;11.528;2022-12-16T12:16:41;0.10;79.60
40622;DHT22;26324;52.040;11.528;2022-12-16T12:20:03;0.10;79.80
40622;DHT22;26324;52.040;11.528;2022-12-16T12:22:54;0.20;80.10
40622;DHT22;26324;52.040;11.528;2022-12-16T12:26:05;0.20;80.60
40622;DHT22;26324;52.040;11.528;2022-12-16T12:29:01;0.20;80.90
40622;DHT22;26324;52.040;11.528;2022-12-16T12:34:52;0.20;81.10
40622;DHT22;26324;52.040;11.528;2022-12-16T12:37:45;0.30;81.10
40622;DHT22;26324;52.040;11.528;2022-12-16T12:40:39;0.20;81.10
40622;DHT22;26324;52.040;11.528;2022-12-16T12:46:37;0.10;81.30
40622;DHT22;26324;52.040;11.528;2022-12-16T12:52:52;0.10;81.10
40622;DHT22;26324;52.040;11.528;2022-12-16T12:56:10;0.10;81.10
40622;DHT22;26324;52.040;11.528;2022-12-16T12:59:03;0.10;81.10
40622;DHT22;26324;52.040;11.528;2022-12-16T13:01:49;0.10;81.40
40622;DHT22;26324;52.040;11.528;2022-12-16T13:04:35;0.00;81.50
40622;DHT22;26324;52.040;11.528;2022-12-16T13:07:20;0.00;81.60
40622;DHT22;26324;52.040;11.528;2022-12-16T13:16:01;-3276.70;81.80
40622;DHT22;26324;52.040;11.528;2022-12-16T13:18:45;-3276.70;81.80
40622;DHT22;26324;52.040;11.528;2022-12-16T13:24:44;-3276.70;81.80
40622;DHT22;26324;52.040;11.528;2022-12-16T13:27:43;-3276.70;81.80
40622;DHT22;26324;52.040;11.528;2022-12-16T13:30:36;-3276.70;82.00
40622;DHT22;26324;52.040;11.528;2022-12-16T13:33:21;-3276.70;82.20
40622;DHT22;26324;52.040;11.528;2022-12-16T13:36:07;-3276.60;82.40
40622;DHT22;26324;52.040;11.528;2022-12-16T13:38:54;-3276.70;82.70
40622;DHT22;26324;52.040;11.528;2022-12-16T13:50:45;-3276.70;82.50
40622;DHT22;26324;52.040;11.528;2022-12-16T13:53:48;-3276.60;82.40
40622;DHT22;26324;52.040;11.528;2022-12-16T13:56:46;-3276.60;82.70
40622;DHT22;26324;52.040;11.528;2022-12-16T13:59:32;-3276.60;82.90
40622;DHT22;26324;52.040;11.528;2022-12-16T14:02:27;-3276.60;83.00
40622;DHT22;26324;52.040;11.528;2022-12-16T14:05:22;-3276.50;83.00
40622;DHT22;26324;52.040;11.528;2022-12-16T14:08:14;-3276.50;83.10
40622;DHT22;26324;52.040;11.528;2022-12-16T14:11:02;-3276.50;83.20
40622;DHT22;26324;52.040;11.528;2022-12-16T14:14:02;-3276.40;83.20
40622;DHT22;26324;52.040;11.528;2022-12-16T14:16:58;-3276.40;83.30
40622;DHT22;26324;52.040;11.528;2022-12-16T14:23:24;-3276.40;83.40
40622;DHT22;26324;52.040;11.528;2022-12-16T14:26:14;-3276.30;83.70
40622;DHT22;26324;52.040;11.528;2022-12-16T14:29:02;-3276.40;83.70
40622;DHT22;26324;52.040;11.528;2022-12-16T14:31:46;-3276.40;83.80
40622;DHT22;26324;52.040;11.528;2022-12-16T14:34:35;-3276.30;83.80
40622;DHT22;26324;52.040;11.528;2022-12-16T14:37:35;-3276.30;83.80
40622;DHT22;26324;52.040;11.528;2022-12-16T14:40:20;-3276.30;83.70
40622;DHT22;26324;52.040;11.528;2022-12-16T14:43:13;-3276.10;83.90
40622;DHT22;26324;52.040;11.528;2022-12-16T14:45:58;-3276.10;84.10
40622;DHT22;26324;52.040;11.528;2022-12-16T14:48:48;-3276.00;84.10
40622;DHT22;26324;52.040;11.528;2022-12-16T14:51:34;-3276.00;84.40
40622;DHT22;26324;52.040;11.528;2022-12-16T14:57:30;-3276.00;84.30
40622;DHT22;26324;52.040;11.528;2022-12-16T15:03:28;-3276.00;84.20
40622;DHT22;26324;52.040;11.528;2022-12-16T15:06:24;-3275.90;84.20
40622;DHT22;26324;52.040;11.528;2022-12-16T15:09:19;-3275.80;84.70
40622;DHT22;26324;52.040;11.528;2022-12-16T15:12:05;-3275.90;84.80
40622;DHT22;26324;52.040;11.528;2022-12-16T15:14:53;-3275.90;84.70
40622;DHT22;26324;52.040;11.528;2022-12-16T15:17:50;-3275.80;84.70
40622;DHT22;26324;52.040;11.528;2022-12-16T15:20:50;-3275.90;84.70
40622;DHT22;26324;52.040;11.528;2022-12-16T15:23:39;-3276.00;84.50
40622;DHT22;26324;52.040;11.528;2022-12-16T15:26:26;-3276.00;84.40
40622;DHT22;26324;52.040;11.528;2022-12-16T15:29:35;-3275.90;84.50
40622;DHT22;26324;52.040;11.528;2022-12-16T15:41:00;-3275.70;84.90
40622;DHT22;26324;52.040;11.528;2022-12-16T15:43:45;-3275.70;85.10
40622;DHT22;26324;52.040;11.528;2022-12-16T15:46:32;-3275.70;85.20
40622;DHT22;26324;52.040;11.528;2022-12-16T15:49:30;-3275.80;85.20
40622;DHT22;26324;52.040;11.528;2022-12-16T15:52:38;-3275.80;85.20
40622;DHT22;26324;52.040;11.528;2022-12-16T15:58:28;-3275.70;85.00
40622;DHT22;26324;52.040;11.528;2022-12-16T16:01:24;-3275.70;85.00
40622;DHT22;26324;52.040;11.528;2022-12-16T16:04:22;-3275.70;85.10
40622;DHT22;26324;52.040;11.528;2022-12-16T16:07:16;-3275.70;85.00
40622;DHT22;26324;52.040;11.528;2022-12-16T16:12:52;-3275.70;85.10
40622;DHT22;26324;52.040;11.528;2022-12-16T16:15:36;-3275.70;85.00
40622;DHT22;26324;52.040;11.528;2022-12-16T16:18:20;-3275.60;85.10
40622;DHT22;26324;52.040;11.528;2022-12-16T16:21:05;-3275.70;85.30
40622;DHT22;26324;52.040;11.528;2022-12-16T16:23:49;-3275.70;85.30
40622;DHT22;26324;52.040;11.528;2022-12-16T16:26:34;-3275.60;85.30
40622;DHT22;26324;52.040;11.528;2022-12-16T16:29:18;-3275.70;85.50
40622;DHT22;26324;52.040;11.528;2022-12-16T16:32:02;-3275.60;85.40
40622;DHT22;26324;52.040;11.528;2022-12-16T16:34:46;-3275.70;85.40
40622;DHT22;26324;52.040;11.528;2022-12-16T16:37:33;-3275.60;85.50
40622;DHT22;26324;52.040;11.528;2022-12-16T16:40:34;-3275.70;85.40
40622;DHT22;26324;52.040;11.528;2022-12-16T16:43:18;-3275.70;85.40
40622;DHT22;26324;52.040;11.528;2022-12-16T16:49:03;-3275.60;85.50
40622;DHT22;26324;52.040;11.528;2022-12-16T16:51:47;-3275.60;85.60
40622;DHT22;26324;52.040;11.528;2022-12-16T16:54:31;-3275.60;85.70
40622;DHT22;26324;52.040;11.528;2022-12-16T16:57:15;-3275.70;85.60
40622;DHT22;26324;52.040;11.528;2022-12-16T16:59:59;-3275.70;85.60
40622;DHT22;26324;52.040;11.528;2022-12-16T17:02:43;-3275.70;85.60
40622;DHT22;26324;52.040;11.528;2022-12-16T17:05:27;-3275.60;85.60
40622;DHT22;26324;52.040;11.528;2022-12-16T17:08:11;-3275.60;85.60
40622;DHT22;26324;52.040;11.528;2022-12-16T17:10:56;-3275.70;85.60
40622;DHT22;26324;52.040;11.528;2022-12-16T17:13:40;-3275.60;85.60
40622;DHT22;26324;52.040;11.528;2022-12-16T17:16:25;-3275.60;85.60
40622;DHT22;26324;52.040;11.528;2022-12-16T17:19:09;-3275.70;85.50
40622;DHT22;26324;52.040;11.528;2022-12-16T17:21:53;-3275.70;85.40
40622;DHT22;26324;52.040;11.528;2022-12-16T17:24:37;-3275.70;85.40
40622;DHT22;26324;52.040;11.528;2022-12-16T17:27:23;-3275.60;85.50
40622;DHT22;26324;52.040;11.528;2022-12-16T17:30:20;-3275.50;85.60
40622;DHT22;26324;52.040;11.528;2022-12-16T17:33:05;-3275.50;85.70
40622;DHT22;26324;52.040;11.528;2022-12-16T17:35:50;-3275.50;85.90
40622;DHT22;26324;52.040;11.528;2022-12-16T17:38:38;-3275.50;85.90
40622;DHT22;26324;52.040;11.528;2022-12-16T17:41:22;-3275.50;85.80
40622;DHT22;26324;52.040;11.528;2022-12-16T17:44:06;-3275.50;85.80
40622;DHT22;26324;52.040;11.528;2022-12-16T17:46:50;-3275.50;85.80
40622;DHT22;26324;52.040;11.528;2022-12-16T17:49:34;-3275.50;85.90
40622;DHT22;26324;52.040;11.528;2022-12-16T17:52:19;-3275.40;85.90